sensor_id;sensor_type;location;lat;lon;timestamp;temperature;humidity
68098;DHT22;54886;47.036;15.466;2024-02-21T00:01:03;4.00;68.53
68098;DHT22;54886;47.036;15.466;2024-02-21T00:03:29;4.03;68.55
68098;DHT22;54886;47.036;15.466;2024-02-21T00:05:54;3.90;68.53
68098;DHT22;54886;47.036;15.466;2024-02-21T00:08:19;3.86;68.76
68098;DHT22;54886;47.036;15.466;2024-02-21T00:10:45;3.92;69.14
68098;DHT22;54886;47.036;15.466;2024-02-21T00:13:10;3.87;68.75
68098;DHT22;54886;47.036;15.466;2024-02-21T00:15:37;3.75;68.52
68098;DHT22;54886;47.036;15.466;2024-02-21T00:18:02;3.75;69.05
68098;DHT22;54886;47.036;15.466;2024-02-21T00:20:28;3.83;69.28
68098;DHT22;54886;47.036;15.466;2024-02-21T00:22:53;3.72;68.78
68098;DHT22;54886;47.036;15.466;2024-02-21T00:25:19;3.55;69.46
68098;DHT22;54886;47.036;15.466;2024-02-21T00:27:45;3.58;69.22
68098;DHT22;54886;47.036;15.466;2024-02-21T00:30:10;3.56;69.64
68098;DHT22;54886;47.036;15.466;2024-02-21T00:32:36;3.55;69.38
68098;DHT22;54886;47.036;15.466;2024-02-21T00:35:01;3.59;69.54
68098;DHT22;54886;47.036;15.466;2024-02-21T00:37:27;3.66;69.95
68098;DHT22;54886;47.036;15.466;2024-02-21T00:39:54;3.54;69.68
68098;DHT22;54886;47.036;15.466;2024-02-21T00:42:19;3.55;70.17
68098;DHT22;54886;47.036;15.466;2024-02-21T00:44:44;3.56;69.49
68098;DHT22;54886;47.036;15.466;2024-02-21T00:47:10;3.55;69.31
68098;DHT22;54886;47.036;15.466;2024-02-21T00:49:35;3.51;70.07
68098;DHT22;54886;47.036;15.466;2024-02-21T00:52:01;3.59;69.92
68098;DHT22;54886;47.036;15.466;2024-02-21T00:54:26;3.56;69.92
68098;DHT22;54886;47.036;15.466;2024-02-21T00:56:52;3.55;70.07
68098;DHT22;54886;47.036;15.466;2024-02-21T00:59:18;3.48;70.79
68098;DHT22;54886;47.036;15.466;2024-02-21T01:01:43;3.56;70.64
68098;DHT22;54886;47.036;15.466;2024-02-21T01:04:11;3.59;70.81
68098;DHT22;54886;47.036;15.466;2024-02-21T01:06:37;3.58;70.89
68098;DHT22;54886;47.036;15.466;2024-02-21T01:09:02;3.58;71.22
68098;DHT22;54886;47.036;15.466;2024-02-21T01:11:27;3.56;71.36
68098;DHT22;54886;47.036;15.466;2024-02-21T01:13:53;3.61;71.25
68098;DHT22;54886;47.036;15.466;2024-02-21T01:16:19;3.56;71.22
68098;DHT22;54886;47.036;15.466;2024-02-21T01:18:45;3.58;71.21
68098;DHT22;54886;47.036;15.466;2024-02-21T01:21:10;3.58;71.02
68098;DHT22;54886;47.036;15.466;2024-02-21T01:23:36;3.62;71.23
68098;DHT22;54886;47.036;15.466;2024-02-21T01:26:03;3.62;71.29
68098;DHT22;54886;47.036;15.466;2024-02-21T01:28:28;3.59;71.11
68098;DHT22;54886;47.036;15.466;2024-02-21T01:30:54;3.61;71.62
68098;DHT22;54886;47.036;15.466;2024-02-21T01:33:19;3.52;72.42
68098;DHT22;54886;47.036;15.466;2024-02-21T01:35:45;3.56;72.11
68098;DHT22;54886;47.036;15.466;2024-02-21T01:38:12;3.54;71.95
68098;DHT22;54886;47.036;15.466;2024-02-21T01:40:37;3.56;71.67
68098;DHT22;54886;47.036;15.466;2024-02-21T01:43:03;3.65;71.92
68098;DHT22;54886;47.036;15.466;2024-02-21T01:45:28;3.65;71.52
68098;DHT22;54886;47.036;15.466;2024-02-21T01:47:53;3.68;71.40
68098;DHT22;54886;47.036;15.466;2024-02-21T01:50:20;3.65;71.73
68098;DHT22;54886;47.036;15.466;2024-02-21T01:52:46;3.61;72.70
68098;DHT22;54886;47.036;15.466;2024-02-21T01:55:14;3.54;72.98
68098;DHT22;54886;47.036;15.466;2024-02-21T01:57:41;3.58;72.83
68098;DHT22;54886;47.036;15.466;2024-02-21T02:00:09;3.64;71.93
68098;DHT22;54886;47.036;15.466;2024-02-21T02:02:35;3.65;72.06
68098;DHT22;54886;47.036;15.466;2024-02-21T02:05:03;3.58;73.48
68098;DHT22;54886;47.036;15.466;2024-02-21T02:07:29;3.56;73.05
68098;DHT22;54886;47.036;15.466;2024-02-21T02:09:54;3.64;72.64
68098;DHT22;54886;47.036;15.466;2024-02-21T02:12:19;3.64;72.30
68098;DHT22;54886;47.036;15.466;2024-02-21T02:14:46;3.71;72.09
68098;DHT22;54886;47.036;15.466;2024-02-21T02:17:11;3.68;73.00
68098;DHT22;54886;47.036;15.466;2024-02-21T02:19:37;3.71;72.85
68098;DHT22;54886;47.036;15.466;2024-02-21T02:22:18;3.72;72.41
68098;DHT22;54886;47.036;15.466;2024-02-21T02:24:47;3.75;73.05
68098;DHT22;54886;47.036;15.466;2024-02-21T02:27:12;3.78;73.04
68098;DHT22;54886;47.036;15.466;2024-02-21T02:29:37;3.72;73.47
68098;DHT22;54886;47.036;15.466;2024-02-21T02:32:03;3.72;73.80
68098;DHT22;54886;47.036;15.466;2024-02-21T02:34:29;3.74;73.59
68098;DHT22;54886;47.036;15.466;2024-02-21T02:36:55;3.71;73.96
68098;DHT22;54886;47.036;15.466;2024-02-21T02:39:20;3.75;73.37
68098;DHT22;54886;47.036;15.466;2024-02-21T02:41:46;3.76;72.68
68098;DHT22;54886;47.036;15.466;2024-02-21T02:44:11;3.81;73.45
68098;DHT22;54886;47.036;15.466;2024-02-21T02:46:40;3.83;72.68
68098;DHT22;54886;47.036;15.466;2024-02-21T02:49:05;3.81;72.75
68098;DHT22;54886;47.036;15.466;2024-02-21T02:51:31;3.85;72.55
68098;DHT22;54886;47.036;15.466;2024-02-21T02:53:56;3.83;72.35
68098;DHT22;54886;47.036;15.466;2024-02-21T02:56:22;3.89;72.25
68098;DHT22;54886;47.036;15.466;2024-02-21T02:58:47;3.82;73.15
68098;DHT22;54886;47.036;15.466;2024-02-21T03:01:13;3.86;73.27
68098;DHT22;54886;47.036;15.466;2024-02-21T03:03:39;3.86;73.14
68098;DHT22;54886;47.036;15.466;2024-02-21T03:06:04;3.87;72.59
68098;DHT22;54886;47.036;15.466;2024-02-21T03:08:30;3.85;73.21
68098;DHT22;54886;47.036;15.466;2024-02-21T03:10:55;3.87;73.21
68098;DHT22;54886;47.036;15.466;2024-02-21T03:13:20;3.83;73.34
68098;DHT22;54886;47.036;15.466;2024-02-21T03:15:46;3.85;73.12
68098;DHT22;54886;47.036;15.466;2024-02-21T03:18:11;3.85;72.71
68098;DHT22;54886;47.036;15.466;2024-02-21T03:20:37;3.87;72.71
68098;DHT22;54886;47.036;15.466;2024-02-21T03:23:02;3.87;72.90
68098;DHT22;54886;47.036;15.466;2024-02-21T03:25:27;3.89;72.69
68098;DHT22;54886;47.036;15.466;2024-02-21T03:27:53;3.92;72.39
68098;DHT22;54886;47.036;15.466;2024-02-21T03:30:18;3.96;72.34
68098;DHT22;54886;47.036;15.466;2024-02-21T03:32:43;3.90;72.77
68098;DHT22;54886;47.036;15.466;2024-02-21T03:35:09;3.93;72.61
68098;DHT22;54886;47.036;15.466;2024-02-21T03:37:35;3.97;72.86
68098;DHT22;54886;47.036;15.466;2024-02-21T03:40:00;3.92;72.92
68098;DHT22;54886;47.036;15.466;2024-02-21T03:42:25;3.93;73.17
68098;DHT22;54886;47.036;15.466;2024-02-21T03:44:51;3.92;72.69
68098;DHT22;54886;47.036;15.466;2024-02-21T03:47:16;3.89;73.11
68098;DHT22;54886;47.036;15.466;2024-02-21T03:49:41;3.89;72.56
68098;DHT22;54886;47.036;15.466;2024-02-21T03:52:07;3.86;72.37
68098;DHT22;54886;47.036;15.466;2024-02-21T03:54:33;3.86;72.77
68098;DHT22;54886;47.036;15.466;2024-02-21T03:56:59;3.79;73.45
68098;DHT22;54886;47.036;15.466;2024-02-21T03:59:24;3.82;72.82
68098;DHT22;54886;47.036;15.466;2024-02-21T04:01:53;3.82;73.07
68098;DHT22;54886;47.036;15.466;2024-02-21T04:04:18;3.81;73.00
68098;DHT22;54886;47.036;15.466;2024-02-21T04:06:50;3.81;72.73
68098;DHT22;54886;47.036;15.466;2024-02-21T04:09:15;3.79;72.92
68098;DHT22;54886;47.036;15.466;2024-02-21T04:11:41;3.82;72.61
68098;DHT22;54886;47.036;15.466;2024-02-21T04:14:06;3.85;72.40
68098;DHT22;54886;47.036;15.466;2024-02-21T04:16:32;3.85;72.19
68098;DHT22;54886;47.036;15.466;2024-02-21T04:18:57;3.90;72.22
68098;DHT22;54886;47.036;15.466;2024-02-21T04:21:23;3.87;72.75
68098;DHT22;54886;47.036;15.466;2024-02-21T04:23:48;3.85;72.63
68098;DHT22;54886;47.036;15.466;2024-02-21T04:26:13;3.87;72.79
68098;DHT22;54886;47.036;15.466;2024-02-21T04:28:39;3.89;72.49
68098;DHT22;54886;47.036;15.466;2024-02-21T04:31:04;3.90;72.56
68098;DHT22;54886;47.036;15.466;2024-02-21T04:33:30;3.92;72.72
68098;DHT22;54886;47.036;15.466;2024-02-21T04:35:55;3.86;73.02
68098;DHT22;54886;47.036;15.466;2024-02-21T04:38:20;3.87;72.65
68098;DHT22;54886;47.036;15.466;2024-02-21T04:40:46;3.81;72.97
68098;DHT22;54886;47.036;15.466;2024-02-21T04:43:11;3.82;72.85
68098;DHT22;54886;47.036;15.466;2024-02-21T04:45:37;3.87;72.59
68098;DHT22;54886;47.036;15.466;2024-02-21T04:48:02;3.81;73.48
68098;DHT22;54886;47.036;15.466;2024-02-21T04:50:28;3.78;73.22
68098;DHT22;54886;47.036;15.466;2024-02-21T04:52:53;3.83;73.07
68098;DHT22;54886;47.036;15.466;2024-02-21T04:55:18;3.83;73.42
68098;DHT22;54886;47.036;15.466;2024-02-21T04:57:44;3.79;73.40
68098;DHT22;54886;47.036;15.466;2024-02-21T05:00:09;3.79;73.34
68098;DHT22;54886;47.036;15.466;2024-02-21T05:02:36;3.81;73.14
68098;DHT22;54886;47.036;15.466;2024-02-21T05:05:01;3.74;73.47
68098;DHT22;54886;47.036;15.466;2024-02-21T05:07:27;3.76;73.27
68098;DHT22;54886;47.036;15.466;2024-02-21T05:09:53;3.76;73.16
68098;DHT22;54886;47.036;15.466;2024-02-21T05:12:18;3.76;73.38
68098;DHT22;54886;47.036;15.466;2024-02-21T05:14:43;3.81;73.14
68098;DHT22;54886;47.036;15.466;2024-02-21T05:17:09;3.79;73.22
68098;DHT22;54886;47.036;15.466;2024-02-21T05:19:34;3.79;73.16
68098;DHT22;54886;47.036;15.466;2024-02-21T05:22:00;3.79;73.25
68098;DHT22;54886;47.036;15.466;2024-02-21T05:24:25;3.76;73.11
68098;DHT22;54886;47.036;15.466;2024-02-21T05:26:51;3.68;73.70
68098;DHT22;54886;47.036;15.466;2024-02-21T05:29:16;3.68;73.47
68098;DHT22;54886;47.036;15.466;2024-02-21T05:34:20;3.64;73.56
68098;DHT22;54886;47.036;15.466;2024-02-21T05:36:46;3.65;73.36
68098;DHT22;54886;47.036;15.466;2024-02-21T05:39:12;3.59;73.73
68098;DHT22;54886;47.036;15.466;2024-02-21T05:41:38;3.62;72.98
68098;DHT22;54886;47.036;15.466;2024-02-21T05:44:03;3.55;73.36
68098;DHT22;54886;47.036;15.466;2024-02-21T05:46:29;3.61;73.08
68098;DHT22;54886;47.036;15.466;2024-02-21T05:48:54;3.58;73.16
68098;DHT22;54886;47.036;15.466;2024-02-21T05:51:19;3.58;73.04
68098;DHT22;54886;47.036;15.466;2024-02-21T05:53:45;3.47;73.51
68098;DHT22;54886;47.036;15.466;2024-02-21T05:56:11;3.50;73.60
68098;DHT22;54886;47.036;15.466;2024-02-21T05:58:37;3.51;73.53
68098;DHT22;54886;47.036;15.466;2024-02-21T06:01:02;3.47;73.74
68098;DHT22;54886;47.036;15.466;2024-02-21T06:03:29;3.45;73.76
68098;DHT22;54886;47.036;15.466;2024-02-21T06:05:54;3.39;73.59
68098;DHT22;54886;47.036;15.466;2024-02-21T06:08:20;3.37;73.65
68098;DHT22;54886;47.036;15.466;2024-02-21T06:10:45;3.41;73.71
68098;DHT22;54886;47.036;15.466;2024-02-21T06:13:11;3.31;73.90
68098;DHT22;54886;47.036;15.466;2024-02-21T06:15:36;3.31;73.93
68098;DHT22;54886;47.036;15.466;2024-02-21T06:18:02;3.32;73.75
68098;DHT22;54886;47.036;15.466;2024-02-21T06:20:27;3.31;73.81
68098;DHT22;54886;47.036;15.466;2024-02-21T06:22:53;3.28;74.15
68098;DHT22;54886;47.036;15.466;2024-02-21T06:25:19;3.32;73.58
68098;DHT22;54886;47.036;15.466;2024-02-21T06:27:44;3.31;74.20
68098;DHT22;54886;47.036;15.466;2024-02-21T06:30:10;3.31;74.17
68098;DHT22;54886;47.036;15.466;2024-02-21T06:32:35;3.35;74.29
68098;DHT22;54886;47.036;15.466;2024-02-21T06:35:01;3.32;74.47
68098;DHT22;54886;47.036;15.466;2024-02-21T06:37:27;3.35;74.37
68098;DHT22;54886;47.036;15.466;2024-02-21T06:39:52;3.35;74.62
68098;DHT22;54886;47.036;15.466;2024-02-21T06:42:18;3.35;75.30
68098;DHT22;54886;47.036;15.466;2024-02-21T06:44:44;3.41;74.79
68098;DHT22;54886;47.036;15.466;2024-02-21T06:47:09;3.45;74.47
68098;DHT22;54886;47.036;15.466;2024-02-21T06:49:35;3.50;74.69
68098;DHT22;54886;47.036;15.466;2024-02-21T06:52:04;3.54;74.15
68098;DHT22;54886;47.036;15.466;2024-02-21T06:54:30;3.59;74.12
68098;DHT22;54886;47.036;15.466;2024-02-21T06:56:55;3.61;73.60
68098;DHT22;54886;47.036;15.466;2024-02-21T06:59:20;3.68;73.48
68098;DHT22;54886;47.036;15.466;2024-02-21T07:01:48;3.71;73.92
68098;DHT22;54886;47.036;15.466;2024-02-21T07:04:14;3.74;73.49
68098;DHT22;54886;47.036;15.466;2024-02-21T07:06:40;3.79;73.68
68098;DHT22;54886;47.036;15.466;2024-02-21T07:09:05;3.86;73.46
68098;DHT22;54886;47.036;15.466;2024-02-21T07:11:30;3.87;73.19
68098;DHT22;54886;47.036;15.466;2024-02-21T07:13:56;3.90;73.05
68098;DHT22;54886;47.036;15.466;2024-02-21T07:16:21;3.96;72.97
68098;DHT22;54886;47.036;15.466;2024-02-21T07:18:47;4.00;73.16
68098;DHT22;54886;47.036;15.466;2024-02-21T07:21:12;4.02;72.74
68098;DHT22;54886;47.036;15.466;2024-02-21T07:23:41;4.06;72.74
68098;DHT22;54886;47.036;15.466;2024-02-21T07:26:07;4.09;73.17
68098;DHT22;54886;47.036;15.466;2024-02-21T07:28:32;4.13;73.04
68098;DHT22;54886;47.036;15.466;2024-02-21T07:30:59;4.14;72.75
68098;DHT22;54886;47.036;15.466;2024-02-21T07:33:24;4.20;73.09
68098;DHT22;54886;47.036;15.466;2024-02-21T07:35:50;4.17;73.25
68098;DHT22;54886;47.036;15.466;2024-02-21T07:38:15;4.22;72.98
68098;DHT22;54886;47.036;15.466;2024-02-21T07:40:44;4.25;73.08
68098;DHT22;54886;47.036;15.466;2024-02-21T07:43:10;4.27;72.72
68098;DHT22;54886;47.036;15.466;2024-02-21T07:45:35;4.30;72.72
68098;DHT22;54886;47.036;15.466;2024-02-21T07:48:01;4.34;72.74
68098;DHT22;54886;47.036;15.466;2024-02-21T07:50:26;4.36;72.76
68098;DHT22;54886;47.036;15.466;2024-02-21T07:52:52;4.40;73.19
68098;DHT22;54886;47.036;15.466;2024-02-21T07:55:17;4.45;72.69
68098;DHT22;54886;47.036;15.466;2024-02-21T07:57:43;4.49;72.63
68098;DHT22;54886;47.036;15.466;2024-02-21T08:00:08;4.52;72.15
68098;DHT22;54886;47.036;15.466;2024-02-21T08:02:35;4.57;71.78
68098;DHT22;54886;47.036;15.466;2024-02-21T08:05:01;4.61;72.03
68098;DHT22;54886;47.036;15.466;2024-02-21T08:07:26;4.62;71.36
68098;DHT22;54886;47.036;15.466;2024-02-21T08:09:54;4.68;71.49
68098;DHT22;54886;47.036;15.466;2024-02-21T08:12:19;4.71;71.22
68098;DHT22;54886;47.036;15.466;2024-02-21T08:14:45;4.76;70.35
68098;DHT22;54886;47.036;15.466;2024-02-21T08:17:10;4.79;70.22
68098;DHT22;54886;47.036;15.466;2024-02-21T08:19:36;4.83;69.58
68098;DHT22;54886;47.036;15.466;2024-02-21T08:22:01;4.87;68.84
68098;DHT22;54886;47.036;15.466;2024-02-21T08:24:26;4.92;67.99
68098;DHT22;54886;47.036;15.466;2024-02-21T08:26:52;4.99;67.75
68098;DHT22;54886;47.036;15.466;2024-02-21T08:29:17;5.01;67.88
68098;DHT22;54886;47.036;15.466;2024-02-21T08:31:42;5.04;67.88
68098;DHT22;54886;47.036;15.466;2024-02-21T08:34:08;5.06;68.08
68098;DHT22;54886;47.036;15.466;2024-02-21T08:36:34;5.13;68.25
68098;DHT22;54886;47.036;15.466;2024-02-21T08:39:00;5.13;68.22
68098;DHT22;54886;47.036;15.466;2024-02-21T08:41:26;5.19;68.42
68098;DHT22;54886;47.036;15.466;2024-02-21T08:43:52;5.21;68.22
68098;DHT22;54886;47.036;15.466;2024-02-21T08:46:22;5.23;68.01
68098;DHT22;54886;47.036;15.466;2024-02-21T08:48:49;5.26;68.07
68098;DHT22;54886;47.036;15.466;2024-02-21T08:51:15;5.27;68.37
68098;DHT22;54886;47.036;15.466;2024-02-21T08:53:40;5.32;68.25
68098;DHT22;54886;47.036;15.466;2024-02-21T08:56:06;5.35;68.37
68098;DHT22;54886;47.036;15.466;2024-02-21T08:58:36;5.37;68.56
68098;DHT22;54886;47.036;15.466;2024-02-21T09:01:03;5.39;68.55
68098;DHT22;54886;47.036;15.466;2024-02-21T09:03:33;5.44;68.27
68098;DHT22;54886;47.036;15.466;2024-02-21T09:05:59;5.51;68.50
68098;DHT22;54886;47.036;15.466;2024-02-21T09:08:25;5.55;68.30
68098;DHT22;54886;47.036;15.466;2024-02-21T09:10:51;5.60;67.83
68098;DHT22;54886;47.036;15.466;2024-02-21T09:13:16;5.63;67.61
68098;DHT22;54886;47.036;15.466;2024-02-21T09:15:42;5.65;67.77
68098;DHT22;54886;47.036;15.466;2024-02-21T09:18:08;5.69;67.53
68098;DHT22;54886;47.036;15.466;2024-02-21T09:20:33;5.75;67.99
68098;DHT22;54886;47.036;15.466;2024-02-21T09:22:59;5.79;67.53
68098;DHT22;54886;47.036;15.466;2024-02-21T09:25:24;5.80;67.17
68098;DHT22;54886;47.036;15.466;2024-02-21T09:27:49;5.92;67.37
68098;DHT22;54886;47.036;15.466;2024-02-21T09:30:17;5.97;66.76
68098;DHT22;54886;47.036;15.466;2024-02-21T09:32:42;6.07;66.16
68098;DHT22;54886;47.036;15.466;2024-02-21T09:35:08;6.11;66.29
68098;DHT22;54886;47.036;15.466;2024-02-21T09:37:33;6.20;64.99
68098;DHT22;54886;47.036;15.466;2024-02-21T09:39:59;6.22;65.58
68098;DHT22;54886;47.036;15.466;2024-02-21T09:42:37;6.30;64.64
68098;DHT22;54886;47.036;15.466;2024-02-21T09:45:08;6.34;65.10
68098;DHT22;54886;47.036;15.466;2024-02-21T09:50:05;6.38;64.26
68098;DHT22;54886;47.036;15.466;2024-02-21T09:52:32;6.44;64.17
68098;DHT22;54886;47.036;15.466;2024-02-21T09:55:01;6.48;63.93
68098;DHT22;54886;47.036;15.466;2024-02-21T09:57:26;6.55;64.45
68098;DHT22;54886;47.036;15.466;2024-02-21T09:59:53;6.61;63.50
68098;DHT22;54886;47.036;15.466;2024-02-21T10:02:20;6.65;63.58
68098;DHT22;54886;47.036;15.466;2024-02-21T10:04:46;6.65;64.06
68098;DHT22;54886;47.036;15.466;2024-02-21T10:07:12;6.69;64.00
68098;DHT22;54886;47.036;15.466;2024-02-21T10:09:37;6.76;64.29
68098;DHT22;54886;47.036;15.466;2024-02-21T10:12:10;6.79;64.32
68098;DHT22;54886;47.036;15.466;2024-02-21T10:14:36;6.85;62.43
68098;DHT22;54886;47.036;15.466;2024-02-21T10:17:01;6.87;63.96
68098;DHT22;54886;47.036;15.466;2024-02-21T10:19:28;6.97;62.16
68098;DHT22;54886;47.036;15.466;2024-02-21T10:22:07;6.99;61.97
68098;DHT22;54886;47.036;15.466;2024-02-21T10:24:34;7.01;62.17
68098;DHT22;54886;47.036;15.466;2024-02-21T10:27:01;7.01;62.66
68098;DHT22;54886;47.036;15.466;2024-02-21T10:29:29;7.07;62.61
68098;DHT22;54886;47.036;15.466;2024-02-21T10:32:13;7.08;62.79
68098;DHT22;54886;47.036;15.466;2024-02-21T10:34:42;7.18;62.53
68098;DHT22;54886;47.036;15.466;2024-02-21T10:37:09;7.21;63.36
68098;DHT22;54886;47.036;15.466;2024-02-21T10:39:40;7.24;62.34
68098;DHT22;54886;47.036;15.466;2024-02-21T10:42:05;7.27;62.03
68098;DHT22;54886;47.036;15.466;2024-02-21T10:44:33;7.30;61.92
68098;DHT22;54886;47.036;15.466;2024-02-21T10:46:59;7.31;62.40
68098;DHT22;54886;47.036;15.466;2024-02-21T10:49:26;7.35;62.21
68098;DHT22;54886;47.036;15.466;2024-02-21T10:54:55;7.45;61.39
68098;DHT22;54886;47.036;15.466;2024-02-21T10:57:22;7.48;61.84
68098;DHT22;54886;47.036;15.466;2024-02-21T10:59:48;7.56;61.25
68098;DHT22;54886;47.036;15.466;2024-02-21T11:02:15;7.69;62.03
68098;DHT22;54886;47.036;15.466;2024-02-21T11:04:40;7.72;61.12
68098;DHT22;54886;47.036;15.466;2024-02-21T11:07:07;7.77;61.52
68098;DHT22;54886;47.036;15.466;2024-02-21T11:09:33;7.79;61.13
68098;DHT22;54886;47.036;15.466;2024-02-21T11:12:02;7.79;61.07
68098;DHT22;54886;47.036;15.466;2024-02-21T11:14:27;7.85;61.15
68098;DHT22;54886;47.036;15.466;2024-02-21T11:16:53;7.91;60.72
68098;DHT22;54886;47.036;15.466;2024-02-21T11:19:21;7.94;61.41
68098;DHT22;54886;47.036;15.466;2024-02-21T11:21:47;7.97;60.61
68098;DHT22;54886;47.036;15.466;2024-02-21T11:24:13;8.00;60.83
68098;DHT22;54886;47.036;15.466;2024-02-21T11:26:39;8.00;61.07
68098;DHT22;54886;47.036;15.466;2024-02-21T11:29:07;8.10;60.02
68098;DHT22;54886;47.036;15.466;2024-02-21T11:31:44;8.23;59.70
68098;DHT22;54886;47.036;15.466;2024-02-21T11:34:12;8.24;59.33
68098;DHT22;54886;47.036;15.466;2024-02-21T11:36:51;8.34;58.45
68098;DHT22;54886;47.036;15.466;2024-02-21T11:39:26;8.44;58.55
68098;DHT22;54886;47.036;15.466;2024-02-21T11:42:04;8.56;58.80
68098;DHT22;54886;47.036;15.466;2024-02-21T11:44:30;8.65;58.83
68098;DHT22;54886;47.036;15.466;2024-02-21T11:46:56;8.72;58.51
68098;DHT22;54886;47.036;15.466;2024-02-21T11:49:25;8.83;58.92
68098;DHT22;54886;47.036;15.466;2024-02-21T11:51:58;8.94;58.91
68098;DHT22;54886;47.036;15.466;2024-02-21T11:54:24;9.08;57.22
68098;DHT22;54886;47.036;15.466;2024-02-21T11:56:49;9.20;56.35
68098;DHT22;54886;47.036;15.466;2024-02-21T11:59:15;9.23;56.10
68098;DHT22;54886;47.036;15.466;2024-02-21T12:01:40;9.32;56.39
68098;DHT22;54886;47.036;15.466;2024-02-21T12:04:06;9.41;56.45
68098;DHT22;54886;47.036;15.466;2024-02-21T12:06:32;9.43;56.96
68098;DHT22;54886;47.036;15.466;2024-02-21T12:08:58;9.43;56.61
68098;DHT22;54886;47.036;15.466;2024-02-21T12:11:23;9.58;55.72
68098;DHT22;54886;47.036;15.466;2024-02-21T12:14:01;9.72;55.05
68098;DHT22;54886;47.036;15.466;2024-02-21T12:16:28;9.77;54.72
68098;DHT22;54886;47.036;15.466;2024-02-21T12:18:54;9.79;55.92
68098;DHT22;54886;47.036;15.466;2024-02-21T12:21:23;9.83;55.18
68098;DHT22;54886;47.036;15.466;2024-02-21T12:23:49;9.89;54.66
68098;DHT22;54886;47.036;15.466;2024-02-21T12:26:14;9.90;53.84
68098;DHT22;54886;47.036;15.466;2024-02-21T12:28:39;9.97;53.11
68098;DHT22;54886;47.036;15.466;2024-02-21T12:31:05;9.97;53.21
68098;DHT22;54886;47.036;15.466;2024-02-21T12:33:30;10.03;52.65
68098;DHT22;54886;47.036;15.466;2024-02-21T12:35:56;10.07;54.02
68098;DHT22;54886;47.036;15.466;2024-02-21T12:38:21;10.13;51.45
68098;DHT22;54886;47.036;15.466;2024-02-21T12:40:47;10.13;51.39
68098;DHT22;54886;47.036;15.466;2024-02-21T12:43:12;10.13;52.21
68098;DHT22;54886;47.036;15.466;2024-02-21T12:45:38;10.13;53.13
68098;DHT22;54886;47.036;15.466;2024-02-21T12:48:04;10.15;52.54
68098;DHT22;54886;47.036;15.466;2024-02-21T12:50:29;10.21;51.94
68098;DHT22;54886;47.036;15.466;2024-02-21T12:52:56;10.22;52.72
68098;DHT22;54886;47.036;15.466;2024-02-21T12:55:23;10.22;53.25
68098;DHT22;54886;47.036;15.466;2024-02-21T12:57:49;10.27;52.44
68098;DHT22;54886;47.036;15.466;2024-02-21T13:00:15;10.34;51.65
68098;DHT22;54886;47.036;15.466;2024-02-21T13:02:40;10.40;50.89
68098;DHT22;54886;47.036;15.466;2024-02-21T13:05:06;10.48;49.56
68098;DHT22;54886;47.036;15.466;2024-02-21T13:07:32;10.48;50.75
68098;DHT22;54886;47.036;15.466;2024-02-21T13:09:58;10.52;51.49
68098;DHT22;54886;47.036;15.466;2024-02-21T13:12:24;10.58;51.35
68098;DHT22;54886;47.036;15.466;2024-02-21T13:14:51;10.66;50.78
68098;DHT22;54886;47.036;15.466;2024-02-21T13:17:16;10.65;50.95
68098;DHT22;54886;47.036;15.466;2024-02-21T13:19:42;10.77;50.59
68098;DHT22;54886;47.036;15.466;2024-02-21T13:22:07;10.75;50.91
68098;DHT22;54886;47.036;15.466;2024-02-21T13:24:33;10.86;49.27
68098;DHT22;54886;47.036;15.466;2024-02-21T13:26:59;10.97;47.81
68098;DHT22;54886;47.036;15.466;2024-02-21T13:29:24;10.92;49.85
68098;DHT22;54886;47.036;15.466;2024-02-21T13:31:49;10.90;50.22
68098;DHT22;54886;47.036;15.466;2024-02-21T13:34:15;10.90;50.05
68098;DHT22;54886;47.036;15.466;2024-02-21T13:36:42;10.99;49.06
68098;DHT22;54886;47.036;15.466;2024-02-21T13:39:07;10.96;49.29
68098;DHT22;54886;47.036;15.466;2024-02-21T13:41:34;10.97;49.44
68098;DHT22;54886;47.036;15.466;2024-02-21T13:43:59;11.00;49.21
68098;DHT22;54886;47.036;15.466;2024-02-21T13:46:29;11.07;48.53
68098;DHT22;54886;47.036;15.466;2024-02-21T13:49:02;11.13;48.86
68098;DHT22;54886;47.036;15.466;2024-02-21T13:51:29;11.11;48.85
68098;DHT22;54886;47.036;15.466;2024-02-21T13:53:55;11.11;48.83
68098;DHT22;54886;47.036;15.466;2024-02-21T13:56:20;11.10;49.07
68098;DHT22;54886;47.036;15.466;2024-02-21T13:58:45;11.11;49.84
68098;DHT22;54886;47.036;15.466;2024-02-21T14:01:11;11.10;48.75
68098;DHT22;54886;47.036;15.466;2024-02-21T14:03:36;11.08;49.71
68098;DHT22;54886;47.036;15.466;2024-02-21T14:06:01;11.08;49.56
68098;DHT22;54886;47.036;15.466;2024-02-21T14:08:27;11.10;49.87
68098;DHT22;54886;47.036;15.466;2024-02-21T14:10:52;11.13;49.84
68098;DHT22;54886;47.036;15.466;2024-02-21T14:13:18;11.14;49.38
68098;DHT22;54886;47.036;15.466;2024-02-21T14:15:44;11.17;49.75
68098;DHT22;54886;47.036;15.466;2024-02-21T14:18:11;11.18;50.12
68098;DHT22;54886;47.036;15.466;2024-02-21T14:20:39;11.23;49.06
68098;DHT22;54886;47.036;15.466;2024-02-21T14:23:04;11.25;49.99
68098;DHT22;54886;47.036;15.466;2024-02-21T14:25:30;11.28;49.42
68098;DHT22;54886;47.036;15.466;2024-02-21T14:27:55;11.31;48.86
68098;DHT22;54886;47.036;15.466;2024-02-21T14:30:20;11.31;49.31
68098;DHT22;54886;47.036;15.466;2024-02-21T14:32:46;11.31;49.47
68098;DHT22;54886;47.036;15.466;2024-02-21T14:35:11;11.32;49.53
68098;DHT22;54886;47.036;15.466;2024-02-21T14:37:37;11.32;49.94
68098;DHT22;54886;47.036;15.466;2024-02-21T14:40:02;11.30;50.47
68098;DHT22;54886;47.036;15.466;2024-02-21T14:42:28;11.28;49.86
68098;DHT22;54886;47.036;15.466;2024-02-21T14:44:54;11.31;49.39
68098;DHT22;54886;47.036;15.466;2024-02-21T14:47:29;11.38;48.40
68098;DHT22;54886;47.036;15.466;2024-02-21T14:49:55;11.35;49.12
68098;DHT22;54886;47.036;15.466;2024-02-21T14:52:20;11.36;49.65
68098;DHT22;54886;47.036;15.466;2024-02-21T14:54:46;11.38;49.70
68098;DHT22;54886;47.036;15.466;2024-02-21T14:57:20;11.35;50.11
68098;DHT22;54886;47.036;15.466;2024-02-21T14:59:46;11.38;48.21
68098;DHT22;54886;47.036;15.466;2024-02-21T15:02:11;11.39;49.62
68098;DHT22;54886;47.036;15.466;2024-02-21T15:04:36;11.38;47.94
68098;DHT22;54886;47.036;15.466;2024-02-21T15:07:02;11.38;48.94
68098;DHT22;54886;47.036;15.466;2024-02-21T15:09:27;11.38;49.05
68098;DHT22;54886;47.036;15.466;2024-02-21T15:11:53;11.39;47.38
68098;DHT22;54886;47.036;15.466;2024-02-21T15:14:19;11.41;47.35
68098;DHT22;54886;47.036;15.466;2024-02-21T15:16:45;11.43;48.28
68098;DHT22;54886;47.036;15.466;2024-02-21T15:19:11;11.43;48.22
68098;DHT22;54886;47.036;15.466;2024-02-21T15:21:36;11.48;48.06
68098;DHT22;54886;47.036;15.466;2024-02-21T15:24:02;11.48;47.04
68098;DHT22;54886;47.036;15.466;2024-02-21T15:26:29;11.55;45.76
68098;DHT22;54886;47.036;15.466;2024-02-21T15:28:55;11.57;46.33